Depesze METAR lotnisk w Polsce

METAR – format kodowanego raportu o pogodzie używany w meteorologii lotniczej i prognozie pogody. METAR jest akronimem od ang. Meteorological Aerodrome Report. Typowy METAR zawiera informację o temperaturze, ciśnieniu, temperaturze punktu rosy, sile i kierunku wiatru, opadzie, pokrywie chmur, wysokości podstawy chmur, widzialności, lecz może zawierać też inne informacje (np. stan dróg startowych).

Warszawa-Okęcie (EPWA)

METAR = EPWA 250800Z 19008KT CAVOK 15/10 Q1009 NOSIG

STACJA......... EPWA - Warszawa-Okęcie (WAW)
POMIAR......... Wed Apr 25, 10:00 CEST
WIATR.......... południowy (S) z prędkością 15 km/h
WIDZIALNOŚĆ.... powyżej 10 kilometrów
CHMURY......... bezchmurne niebo
TEMPERATURA.... 15°C
T.PUNKTU ROSY.. 10°C
WILGOTNOŚĆ..... 72%
CIŚNIENIE...... 1009 hPa
CIŚN.BEZWZGL... 996 hPa
PROGNOZA....... bez nagłych zmian w ciągu 2h

Sprawdź też: Prognoza pogody Warszawa

Warszawa-Modlin (EPMO)

METAR = EPMO 250730Z 20007KT CAVOK 12/11 Q1009 =

STACJA......... EPMO - Warszawa-Modlin (WMI)
POMIAR......... Wed Apr 25, 09:30 CEST
WIATR.......... południowo południowo-zachodni  (SSW) z prędkością 13 km/h
WIDZIALNOŚĆ.... powyżej 10 kilometrów
CHMURY......... bezchmurne niebo
TEMPERATURA.... 12°C
T.PUNKTU ROSY.. 11°C
WILGOTNOŚĆ..... 94%
CIŚNIENIE...... 1009 hPa
CIŚN.BEZWZGL... 997 hPa

Sprawdź też: Prognoza pogody Nowy Dwór Mazowiecki

Kraków-Balice (EPKK)

METAR = EPKK 250800Z 25005KT CAVOK 18/11 Q1012

STACJA......... EPKK - Kraków-Balice (KRK)
POMIAR......... Wed Apr 25, 10:00 CEST
WIATR.......... zachodni południowo-zachodni (WSW) z prędkością 9 km/h
WIDZIALNOŚĆ.... powyżej 10 kilometrów
CHMURY......... bezchmurne niebo
TEMPERATURA.... 18°C
T.PUNKTU ROSY.. 11°C
WILGOTNOŚĆ..... 64%
CIŚNIENIE...... 1012 hPa
CIŚN.BEZWZGL... 984 hPa

Sprawdź też: Prognoza pogody Kraków

Łódź-Lublinek (EPLL)

METAR = EPLL 250800Z 19009G19KT 140V230 CAVOK 17/09 Q1008

STACJA......... EPLL - Łódź-Lublinek (LCJ)
POMIAR......... Wed Apr 25, 10:00 CEST
WIATR.......... południowy (S) z prędkością 17 km/h, w porywach do 35 km/h
WIDZIALNOŚĆ.... powyżej 10 kilometrów
CHMURY......... bezchmurne niebo
TEMPERATURA.... 17°C
T.PUNKTU ROSY.. 9°C
WILGOTNOŚĆ..... 59%
CIŚNIENIE...... 1008 hPa
CIŚN.BEZWZGL... 986 hPa

Sprawdź też: Prognoza pogody Łódź

Wrocław-Strachowice (EPWR)

METAR = EPWR 250800Z 23014KT CAVOK 19/09 Q1009

STACJA......... EPWR - Wrocław-Strachowice (WRO)
POMIAR......... Wed Apr 25, 10:00 CEST
WIATR.......... południowo-zachodni (SW) z prędkością 26 km/h
WIDZIALNOŚĆ.... powyżej 10 kilometrów
CHMURY......... bezchmurne niebo
TEMPERATURA.... 19°C
T.PUNKTU ROSY.. 9°C
WILGOTNOŚĆ..... 52%
CIŚNIENIE...... 1009 hPa
CIŚN.BEZWZGL... 995 hPa

Sprawdź też: Prognoza pogody Wrocław

Katowice-Pyrzowice (EPKT)

METAR = EPKT 250800Z 21017KT CAVOK 19/07 Q1010

STACJA......... EPKT - Katowice-Pyrzowice (KTW)
POMIAR......... Wed Apr 25, 10:00 CEST
WIATR.......... południowo południowo-zachodni  (SSW) z prędkością 31 km/h
WIDZIALNOŚĆ.... powyżej 10 kilometrów
CHMURY......... bezchmurne niebo
TEMPERATURA.... 19°C
T.PUNKTU ROSY.. 7°C
WILGOTNOŚĆ..... 46%
CIŚNIENIE...... 1010 hPa
CIŚN.BEZWZGL... 975 hPa

Sprawdź też: Prognoza pogody Katowice

Gdańsk (EPGD)

METAR = EPGD 250800Z 16004KT 130V220 7000 -RA FEW005 OVC007 09/09 Q1004

STACJA......... EPGD - Gdańsk im. Lecha Wałęsy (GDN)
POMIAR......... Wed Apr 25, 10:00 CEST
WIATR.......... południowo południowo-wschodni (SSE) z prędkością 7 km/h
WIDZIALNOŚĆ.... 7000 metrów
WARUNKI........ słaby: deszcz 
CHMURY......... zachmurzenie całkowite (8/8)
TEMPERATURA.... 9°C
T.PUNKTU ROSY.. 9°C
WILGOTNOŚĆ..... 100%
T.ODCZUWALNA... 8°C
CIŚNIENIE...... 1004 hPa
CIŚN.BEZWZGL... 986 hPa

Sprawdź też: Prognoza pogody Gdańsk

Poznań-Ławica (EPPO)

METAR = EPPO 250800Z 22008KT 9999 -RA NSC 14/10 Q1006

STACJA......... EPPO - Poznań-Ławica (POZ)
POMIAR......... Wed Apr 25, 10:00 CEST
WIATR.......... południowo-zachodni (SW) z prędkością 15 km/h
WIDZIALNOŚĆ.... powyżej 10 kilometrów
WARUNKI........ słaby: deszcz 
CHMURY......... brak istotnych chmur
TEMPERATURA.... 14°C
T.PUNKTU ROSY.. 10°C
WILGOTNOŚĆ..... 77%
CIŚNIENIE...... 1006 hPa
CIŚN.BEZWZGL... 995 hPa

Sprawdź też: Prognoza pogody Poznań

Rzeszów-Jasionka (EPRZ)

METAR = EPRZ 250800Z 21008KT 160V230 CAVOK 18/10 Q1012

STACJA......... EPRZ - Rzeszów-Jasionka (RZE)
POMIAR......... Wed Apr 25, 10:00 CEST
WIATR.......... południowo południowo-zachodni  (SSW) z prędkością 15 km/h
WIDZIALNOŚĆ.... powyżej 10 kilometrów
CHMURY......... bezchmurne niebo
TEMPERATURA.... 18°C
T.PUNKTU ROSY.. 10°C
WILGOTNOŚĆ..... 60%
CIŚNIENIE...... 1012 hPa
CIŚN.BEZWZGL... 987 hPa

Sprawdź też: Prognoza pogody Rzeszów

Szczecin-Goleniów (EPSC)

METAR = EPSC 250800Z 19006KT 140V220 4500 -RA BR FEW003 SCT026 BKN031 12/11 Q1003

STACJA......... EPSC - Szczecin-Goleniów (SZZ)
POMIAR......... Wed Apr 25, 10:00 CEST
WIATR.......... południowy (S) z prędkością 11 km/h
WIDZIALNOŚĆ.... 4500 metrów
WARUNKI........ słaby: deszcz & zamglenie 
CHMURY......... zachmurzenie średnie (5/8-7/8)
TEMPERATURA.... 12°C
T.PUNKTU ROSY.. 11°C
WILGOTNOŚĆ..... 94%
CIŚNIENIE...... 1003 hPa
CIŚN.BEZWZGL... 997 hPa

Sprawdź też: Prognoza pogody Szczecin

Lublin-Świdnik (EPLB)

METAR = EPLB 250730Z 24006KT CAVOK 15/10 Q1011 =

STACJA......... EPLB - Lublin-Świdnik (LUZ)
POMIAR......... Wed Apr 25, 09:30 CEST
WIATR.......... zachodni południowo-zachodni (WSW) z prędkością 11 km/h
WIDZIALNOŚĆ.... powyżej 10 kilometrów
CHMURY......... bezchmurne niebo
TEMPERATURA.... 15°C
T.PUNKTU ROSY.. 10°C
WILGOTNOŚĆ..... 72%
CIŚNIENIE...... 1011 hPa
CIŚN.BEZWZGL... 987 hPa

Sprawdź też: Prognoza pogody Lublin

Bydgoszcz-Szwederowo (EPBY)

METAR = EPBY 250730Z 19004KT 140V220 4000 -RA BR FEW003 BKN046 11/10 Q1007 =

STACJA......... EPBY - Bydgoszcz-Szwederowo (BZG)
POMIAR......... Wed Apr 25, 09:30 CEST
WIATR.......... południowy (S) z prędkością 7 km/h
WIDZIALNOŚĆ.... 4000 metrów
WARUNKI........ słaby: deszcz & zamglenie 
CHMURY......... zachmurzenie średnie (5/8-7/8)
TEMPERATURA.... 11°C
T.PUNKTU ROSY.. 10°C
WILGOTNOŚĆ..... 94%
CIŚNIENIE...... 1007 hPa
CIŚN.BEZWZGL... 998 hPa

Sprawdź też: Prognoza pogody Bydgoszcz

Zielona Góra-Babimost (EPZG)

METAR = EPZG 250730Z 20010KT CAVOK 16/09 Q1007 =

STACJA......... EPZG - Zielona Góra-Babimost (IEG)
POMIAR......... Wed Apr 25, 09:30 CEST
WIATR.......... południowo południowo-zachodni  (SSW) z prędkością 19 km/h
WIDZIALNOŚĆ.... powyżej 10 kilometrów
CHMURY......... bezchmurne niebo
TEMPERATURA.... 16°C
T.PUNKTU ROSY.. 9°C
WILGOTNOŚĆ..... 63%
CIŚNIENIE...... 1007 hPa
CIŚN.BEZWZGL... 1000 hPa

Sprawdź też: Prognoza pogody Zielona Góra

Szymany Olsztyn-Mazury (EPSY)

METAR = EPSY 250730Z 21008KT 7000 SCT011 BKN020 11/09 Q1008=

STACJA......... EPSY - Olsztyn-Mazury (SZY)
POMIAR......... Wed Apr 25, 09:30 CEST
WIATR.......... południowo południowo-zachodni  (SSW) z prędkością 15 km/h
WIDZIALNOŚĆ.... 7000 metrów
CHMURY......... zachmurzenie średnie (5/8-7/8)
TEMPERATURA.... 11°C
T.PUNKTU ROSY.. 9°C
WILGOTNOŚĆ..... 88%
CIŚNIENIE...... 1008 hPa
CIŚN.BEZWZGL... 991 hPa

Sprawdź też: Prognoza pogody Olsztyn